Terminal Aerodrome Forecast
Issued by NWS Northern Indiana

Home | Current Version | Previous Version | Text Only | Print | Product List | Glossary On
Versions: 1 2 3 4 5 6 7 8 9 10 11 12 13 14 15 16
000
FTUS43 KIWX 201720
TAFFWA
TAF
KFWA 201720Z 2018/2118 23012KT P6SM FEW050 BKN150
     FM210000 27005KT P6SM SCT200
     FM210900 VRB03KT 4SM BR SCT010 BKN025
     FM211400 08005KT P6SM BKN035=

USA.gov is the U.S. government's official web portal to all federal, state and local government web resources and services.